Weather observations for the past three days for
St. Petersburg/Clearwater Airport
| Date | Time (edt) | Wind (mph) | Vis. (mi.) | Weather | Sky Cond. | Temperature (ºF) | Relative Humidity | Wind Chill (°F) | Heat Index (°F) | Pressure | Precipitation (in) | ||||||
|---|---|---|---|---|---|---|---|---|---|---|---|---|---|---|---|---|---|
| Air | Dwpt | 6 hour | altimeter (in) | sea level (mb) | 1 hr | 3 hr | 6 hr | ||||||||||
| Max. | Min. | ||||||||||||||||
| 03 | 09:53 | E 7 | 10.00 | Partly Cloudy | SCT011 | 82.4 | 77 | 84% | 91 | 29.97 | 0.0 | ||||||
| 03 | 08:53 | Vrbl 6 | 10.00 | Mostly Cloudy | BKN009 | 80.6 | 77 | 89% | 87 | 29.97 | 0.0 | ||||||
| 03 | 07:53 | Vrbl 6 | 10.00 | Mostly Cloudy | BKN008 | 78.8 | 77 | 94% | 83 | 29.96 | 0.0 | ||||||
| 03 | 06:53 | E 5 | 10.00 | Overcast | BKN009 OVC070 | 80.6 | 78.8 | 94% | 88 | 29.93 | 0.0 | ||||||
| 03 | 05:53 | E 8 | 10.00 | Mostly Cloudy | BKN010 | 80.6 | 78.8 | 94% | 88 | 29.92 | 0.0 | ||||||
| 02 | 20:53 | NE 3 | 10.00 | Light Rain | SCT055 BKN085 OVC110 | 80.6 | 78.8 | 94% | 88 | 29.95 | 0.0 | ||||||
| 02 | 20:13 | NE 5 | 5.00 | Rain Fog/Mist | BKN055 OVC075 | 78.8 | 77 | 94% | 83 | 29.95 | 0.0 | ||||||
| 02 | 15:53 | N 5 | 10.00 | Mostly Cloudy | SCT055 BKN070 | 89.6 | 75.2 | 63% | 100 | 29.93 | 0.0 | ||||||
| 02 | 13:53 | NE 5 | 10.00 | A Few Clouds | FEW030 | 89.6 | 75.2 | 63% | 100 | 29.98 | 0.0 | ||||||
| 02 | 10:53 | NE 5 | 10.00 | Partly Cloudy | SCT047 | 82.4 | 73.4 | 74% | 88 | 30.03 | 0.0 | ||||||
| 02 | 09:53 | NE 6 | 10.00 | Fair | CLR | 82.4 | 78.8 | 89% | 92 | 30.03 | 0.0 | ||||||
| 02 | 08:53 | NE 7 | 10.00 | Mostly Cloudy | BKN008 | 80.6 | 78.8 | 94% | 88 | 30.03 | 0.0 | ||||||
| 02 | 07:53 | NE 6 | 10.00 | A Few Clouds | FEW | 80.6 | 78.8 | 94% | 88 | 30.02 | 0.0 | ||||||
| 01 | 16:53 | N 9 | 10.00 | Partly Cloudy | SCT050 | 91.9 | 77 | 62% | 106 | 29.95 | 1014.1 | ||||||
| 01 | 15:53 | NW 7 | 10.00 | Fair | CLR | 90 | 77 | 66% | 103 | 29.96 | 1014.5 | ||||||
| 01 | 14:53 | NE 3 | 10.00 | Fair | CLR | 90 | 75 | 62% | 100 | 29.99 | 1015.4 | ||||||
| 01 | 13:53 | Vrbl 5 | 10.00 | Fair | CLR | 89.1 | 75 | 90 | 80.1 | 63% | 99 | 30.02 | 1016.4 | ||||
| 01 | 12:53 | Vrbl 5 | 10.00 | Fair | CLR | 87.1 | 77 | 72% | 99 | 30.03 | 1016.9 | ||||||
| 01 | 11:53 | NE 7 | 10.00 | Fair | CLR | 86 | 77 | 75% | 97 | 30.06 | 1017.8 | ||||||
| 01 | 10:53 | NE 6 | 10.00 | Fair | CLR | 84.9 | 78.1 | 80% | 97 | 30.05 | 1017.6 | ||||||
| 01 | 09:53 | E 6 | 10.00 | Fair | CLR | 82.9 | 77 | 82% | 92 | 30.04 | 1017.2 | ||||||
| 01 | 08:53 | E 6 | 10.00 | Fair | CLR | 82 | 78.1 | 88% | 91 | 30.03 | 1016.7 | ||||||
| 01 | 07:53 | E 6 | 10.00 | Partly Cloudy | SCT008 | 80.1 | 77 | 80.1 | 79 | 90% | 86 | 30.02 | 1016.5 | ||||
| 01 | 06:53 | NE 6 | 10.00 | Partly Cloudy | SCT008 | 79 | 77 | 94% | 83 | 30.01 | 1016.2 | ||||||
| 01 | 05:53 | NE 5 | 10.00 | A Few Clouds | FEW008 | 79 | 75.9 | 90% | 83 | 30 | 1015.8 | ||||||
| 01 | 04:53 | NE 5 | 10.00 | Fair | CLR | 79 | 77 | 94% | 83 | 29.98 | 1015.2 | ||||||
| 01 | 03:53 | NE 7 | 10.00 | Fair | CLR | 79 | 75.9 | 90% | 83 | 29.99 | 1015.5 | ||||||
| 01 | 02:53 | NE 7 | 10.00 | Fair | CLR | 79 | 75.9 | 90% | 83 | 30 | 1015.9 | ||||||
| 01 | 01:53 | E 6 | 10.00 | Fair | CLR | 80.1 | 75.9 | 81 | 78.1 | 87% | 85 | 30.03 | 1016.7 | ||||
| 01 | 00:53 | E 5 | 10.00 | Fair | CLR | 80.1 | 75.9 | 87% | 85 | 30.04 | 1017.1 | ||||||
| 31 | 23:53 | E 5 | 10.00 | A Few Clouds | FEW100 | 81 | 75 | 82% | 87 | 30.05 | 1017.4 | ||||||
| 31 | 22:53 | E 6 | 10.00 | Fair | CLR | 80.1 | 73.9 | 82% | 85 | 30.04 | 1017.3 | ||||||
| 31 | 21:53 | SE 5 | 10.00 | Fair | CLR | 79 | 75 | 88% | 83 | 30.04 | 1017.1 | ||||||
| 31 | 20:53 | Calm | 10.00 | Fair | CLR | 79 | 75.9 | 90% | 83 | 30.02 | 1016.6 | ||||||
| 31 | 19:53 | SE 7 | 10.00 | Fair | CLR | 79 | 75.9 | 91 | 78.1 | 90% | 83 | 30.03 | 1016.7 | 0.02 | |||
| 31 | 18:53 | E 8 | 10.00 | Light Rain | SCT042 OVC055 | 79 | 75.9 | 90% | 83 | 30.01 | 1016.3 | 0.02 | |||||
| 31 | 17:53 | NE 9 | 10.00 | Thunderstorm in Vicinity | FEW032 SCT047 | 89.1 | 77 | 68% | 102 | 30.01 | 1016.1 | ||||||
| 31 | 16:53 | NW 12 | 10.00 | Fair | CLR | 89.1 | 75.9 | 65% | 100 | 29.99 | 1015.4 | ||||||
| 31 | 15:53 | N 12 | 10.00 | Fair | CLR | 90 | 77 | 66% | 103 | 29.99 | 1015.6 | ||||||
| 31 | 14:53 | N 8 | 10.00 | Fair | CLR | 90 | 75.9 | 63% | 102 | 30 | 1016.0 | ||||||
| 31 | 13:53 | N 6 | 10.00 | Fair | CLR | 90 | 73.9 | 90 | 78.1 | 59% | 99 | 30.03 | 1016.9 | ||||
| 31 | 12:53 | NE 7 | 10.00 | Fair | CLR | 88 | 73.9 | 63% | 97 | 30.06 | 1017.7 | ||||||
| 31 | 11:53 | NE 7 | 10.00 | Fair | CLR | 87.1 | 77 | 72% | 99 | 30.06 | 1018.0 | ||||||
| 31 | 10:53 | E 5 | 10.00 | Fair | CLR | 84 | 77 | 80% | 94 | 30.06 | 1017.8 | ||||||
| Date | Time (edt) | Wind (mph) | Vis. (mi.) | Weather | Sky Cond. | Air | Dwpt | Max. | Min. | Relative Humidity | Wind Chill (°F) | Heat Index (°F) | altimeter (in) | sea level (mb) | 1 hr | 3 hr | 6 hr |
| 6 hour | |||||||||||||||||
| Temperature (ºF) | Pressure | Precipitation (in) | |||||||||||||||